Time;durP1;ratioP1;P1;durP2;ratioP2;P2;SDS_P1;SDS_P2;PMS_P1;PMS_P2;Temp;Humidity;BMP_temperature;BMP_pressure;BME280_temperature;BME280_humidity;BME280_pressure;Samples;Min_cycle;Max_cycle;Signal;HPM_P1;HPM_P2
2023/07/05 00:01:42;;;;;;;7.93;2.00;;;10.90;99.90;;;9.82;93.74;100931.34;5016354;28;20580;-73
2023/07/05 00:04:09;;;;;;;6.63;1.98;;;11.00;99.90;;;9.92;94.15;100930.06;5029372;28;20538;-72
2023/07/05 00:06:35;;;;;;;8.38;2.45;;;11.10;99.90;;;10.00;95.00;100920.09;4992398;28;20123;-72
2023/07/05 00:09:01;;;;;;;12.13;2.20;;;11.20;99.90;;;10.11;95.05;100929.31;5018481;28;20029;-72
2023/07/05 00:11:27;;;;;;;6.18;2.13;;;11.30;99.90;;;10.17;95.39;100924.66;5025652;28;20032;-72
2023/07/05 00:13:53;;;;;;;9.18;2.30;;;11.30;99.90;;;10.23;95.32;100926.16;5002038;28;20049;-72
2023/07/05 00:16:20;;;;;;;9.02;2.75;;;11.40;99.90;;;10.25;95.34;100930.44;5010615;28;20144;-72
2023/07/05 00:18:46;;;;;;;8.15;2.10;;;11.40;99.90;;;10.28;95.96;100937.38;5003419;28;20046;-72
2023/07/05 00:21:12;;;;;;;6.82;2.10;;;11.50;99.90;;;10.32;95.93;100935.47;5020862;28;20083;-72
2023/07/05 00:23:40;;;;;;;7.57;2.33;;;11.50;99.90;;;10.36;95.60;100923.91;5027151;28;20108;-72
2023/07/05 00:26:07;;;;;;;10.18;2.55;;;11.50;99.90;;;10.37;95.01;100928.28;5019987;28;20121;-72
2023/07/05 00:28:33;;;;;;;9.80;2.42;;;11.50;99.90;;;10.33;96.26;100930.16;5020056;28;20116;-72
2023/07/05 00:31:00;;;;;;;9.57;2.22;;;11.50;99.90;;;10.34;95.90;100938.91;5015620;28;20041;-73
2023/07/05 00:33:26;;;;;;;7.18;2.58;;;11.50;99.90;;;10.36;96.12;100932.66;5024464;28;20037;-72
2023/07/05 00:35:54;;;;;;;5.15;2.60;;;11.50;99.90;;;10.36;95.67;100931.81;5022475;28;20053;-72
2023/07/05 00:38:21;;;;;;;8.05;2.40;;;11.60;99.90;;;10.38;95.67;100936.09;5011020;28;20102;-72
2023/07/05 00:40:47;;;;;;;7.28;2.20;;;11.60;99.90;;;10.37;95.48;100937.03;5019490;28;20102;-74
2023/07/05 00:43:15;;;;;;;8.48;2.50;;;11.60;99.90;;;10.38;95.30;100938.72;5014687;28;20041;-72
2023/07/05 00:45:57;;;;;;;6.85;2.45;;;11.50;99.90;;;10.37;95.20;100931.75;5017378;28;20040;-72
2023/07/05 00:48:47;;;;;;;8.23;1.50;;;11.50;99.90;;;10.33;95.22;100940.69;5001730;28;20056;-72
2023/07/05 00:51:20;;;;;;;4.25;1.77;;;11.50;99.90;;;10.31;95.37;100929.38;5027690;28;20451;-72
2023/07/05 00:53:46;;;;;;;5.13;1.80;;;11.50;99.90;;;10.32;94.81;100931.06;5017156;28;20030;-73
2023/07/05 00:56:29;;;;;;;8.02;2.25;;;11.50;99.90;;;10.34;94.52;100929.22;5025888;28;20057;-72
2023/07/05 00:58:56;;;;;;;7.70;2.20;;;11.50;99.90;;;10.29;94.53;100919.81;5027963;28;20140;-72
2023/07/05 01:01:23;;;;;;;6.70;1.83;;;11.40;99.90;;;10.28;94.01;100924.22;5008148;28;20043;-72
2023/07/05 01:03:54;;;;;;;7.00;2.13;;;11.40;99.90;;;10.22;93.99;100929.75;5019783;28;20146;-72
2023/07/05 01:06:22;;;;;;;6.60;2.20;;;11.40;99.90;;;10.21;94.46;100925.38;5009818;28;20030;-72
2023/07/05 01:08:50;;;;;;;6.68;2.17;;;11.30;99.90;;;10.15;94.68;100920.38;4999690;28;20045;-72
2023/07/05 01:11:52;;;;;;;5.32;1.98;;;11.30;99.90;;;10.12;95.15;100921.34;5015283;28;20044;-73
2023/07/05 01:14:41;;;;;;;3.60;1.85;;;11.20;99.90;;;10.04;94.21;100924.31;4988556;28;20033;-72
2023/07/05 01:17:25;;;;;;;8.30;2.20;;;11.20;99.90;;;9.93;93.27;100916.00;5006212;28;20037;-72
2023/07/05 01:20:24;;;;;;;4.68;2.20;;;11.00;99.90;;;9.84;92.75;100903.22;5021917;28;20061;-72
2023/07/05 01:23:18;;;;;;;4.70;1.67;;;10.90;99.90;;;9.70;93.84;100889.75;5000501;28;20053;-72
2023/07/05 01:26:32;;;;;;;8.40;2.05;;;10.80;99.90;;;9.49;96.67;100883.63;4999644;28;20044;-72
2023/07/05 01:29:21;;;;;;;8.10;2.40;;;10.70;99.90;;;9.44;98.52;100891.69;4991386;28;20041;-72
2023/07/05 01:32:13;;;;;;;8.88;1.70;;;10.70;99.90;;;9.45;98.45;100890.75;5025565;28;20124;-73
2023/07/05 01:34:55;;;;;;;7.70;1.88;;;10.70;99.90;;;9.44;97.85;100891.69;5013923;28;20120;-72
2023/07/05 01:37:40;;;;;;;10.90;2.33;;;10.60;99.90;;;9.41;97.86;100884.75;5015974;28;20038;-73
2023/07/05 01:40:25;;;;;;;2.72;1.77;;;10.60;99.90;;;9.36;98.24;100885.88;5013922;28;20045;-72
2023/07/05 01:42:58;;;;;;;4.82;1.15;;;10.50;99.90;;;9.26;99.49;100890.59;5013473;28;20037;-73
2023/07/05 01:46:09;;;;;;;9.07;1.73;;;10.50;99.90;;;9.31;99.69;100898.31;5011850;28;20045;-72
2023/07/05 01:48:53;;;;;;;19.30;1.63;;;10.60;99.90;;;9.34;100.00;100888.53;4931265;28;20046;-72
2023/07/05 01:51:19;;;;;;;4.97;1.33;;;10.60;99.90;;;9.35;100.00;100877.13;4938018;28;20039;-73
2023/07/05 01:54:18;;;;;;;5.32;1.75;;;10.60;99.90;;;9.37;100.00;100879.69;4945725;28;20545;-72
2023/07/05 01:57:15;;;;;;;3.92;1.83;;;10.60;99.90;;;9.46;100.00;100879.34;4939841;28;20047;-72
2023/07/05 02:00:04;;;;;;;7.78;2.05;;;10.60;99.90;;;9.50;100.00;100878.28;4900193;28;20041;-72
2023/07/05 02:02:37;;;;;;;6.88;1.80;;;10.70;99.90;;;9.53;100.00;100886.06;4945634;28;20050;-73
2023/07/05 02:05:07;;;;;;;9.70;2.83;;;10.80;99.90;;;9.60;100.00;100884.88;4934532;28;20051;-73
2023/07/05 02:07:33;;;;;;;7.47;2.85;;;10.80;99.90;;;9.68;100.00;100891.63;4908582;28;20071;-72
2023/07/05 02:09:59;;;;;;;9.32;2.92;;;10.90;99.90;;;9.71;100.00;100891.50;4931118;28;20046;-73
2023/07/05 02:12:26;;;;;;;4.95;2.28;;;10.90;99.90;;;9.78;100.00;100892.94;4917680;28;20035;-72
2023/07/05 02:14:52;;;;;;;9.32;3.28;;;10.90;99.90;;;9.74;100.00;100880.84;4934365;28;20519;-72
2023/07/05 02:17:19;;;;;;;15.77;2.10;;;11.00;99.90;;;9.72;100.00;100878.28;4927489;28;20464;-73
2023/07/05 02:19:46;;;;;;;6.50;2.40;;;10.90;99.90;;;9.70;100.00;100869.59;4926112;28;20578;-72
2023/07/05 02:22:12;;;;;;;11.50;3.90;;;10.90;99.90;;;9.63;100.00;100860.25;4940326;28;20139;-73
2023/07/05 02:24:38;;;;;;;11.63;3.45;;;10.90;99.90;;;9.56;100.00;100857.00;4964710;28;20053;-72
2023/07/05 02:27:04;;;;;;;13.27;3.60;;;10.80;99.90;;;9.56;100.00;100846.50;5014016;28;20067;-72
2023/07/05 02:29:30;;;;;;;5.60;2.88;;;10.80;99.90;;;9.54;100.00;100847.47;5028854;28;20529;-72
2023/07/05 02:31:58;;;;;;;6.05;3.40;;;10.80;99.90;;;9.49;100.00;100845.03;5028826;28;20037;-72
2023/07/05 02:34:24;;;;;;;8.82;3.70;;;10.80;99.90;;;9.51;100.00;100840.56;5024273;28;20041;-73
2023/07/05 02:36:50;;;;;;;12.82;3.85;;;10.70;99.90;;;9.49;100.00;100849.44;5027106;28;20513;-72
2023/07/05 02:39:16;;;;;;;7.47;3.45;;;10.80;99.90;;;9.57;100.00;100847.38;5019810;28;20112;-72
2023/07/05 02:41:42;;;;;;;13.93;4.05;;;10.80;99.90;;;9.58;100.00;100852.53;5028882;28;20039;-72
2023/07/05 02:44:07;;;;;;;6.70;3.05;;;10.80;99.90;;;9.59;100.00;100846.38;5014593;28;20059;-72
2023/07/05 02:46:33;;;;;;;9.18;3.47;;;10.80;99.90;;;9.60;100.00;100845.44;5010442;28;20052;-71
2023/07/05 02:48:59;;;;;;;14.95;4.22;;;10.80;99.90;;;9.61;100.00;100828.78;5031393;28;20108;-72
2023/07/05 02:51:28;;;;;;;11.80;3.55;;;10.90;99.90;;;9.68;100.00;100833.78;5026705;28;20561;-72
2023/07/05 02:53:55;;;;;;;14.15;3.70;;;10.90;99.90;;;9.73;100.00;100832.66;5019893;28;20041;-72
2023/07/05 02:56:21;;;;;;;14.18;3.60;;;10.90;99.90;;;9.79;100.00;100829.78;5019175;28;20041;-72
2023/07/05 02:58:47;;;;;;;11.25;3.60;;;10.90;99.90;;;9.79;99.91;100828.94;5029356;28;20037;-72
2023/07/05 03:01:13;;;;;;;9.57;3.45;;;11.00;99.90;;;9.87;100.00;100821.59;5011271;28;20096;-72
2023/07/05 03:03:39;;;;;;;7.97;3.45;;;11.00;99.90;;;9.91;99.19;100822.28;4982793;28;20032;-72
2023/07/05 03:06:04;;;;;;;15.32;3.60;;;11.00;99.90;;;9.92;99.51;100814.34;4997918;28;20502;-72
2023/07/05 03:08:30;;;;;;;9.98;3.00;;;11.10;99.90;;;9.95;99.69;100816.81;5021407;28;20052;-72
2023/07/05 03:10:59;;;;;;;9.98;3.75;;;11.10;99.90;;;10.03;99.54;100822.63;5039911;28;20033;-73
2023/07/05 03:13:31;;;;;;;7.05;3.38;;;11.20;99.90;;;10.13;98.90;100824.84;5026574;28;20104;-72
2023/07/05 03:15:57;;;;;;;7.45;3.22;;;11.30;99.90;;;10.24;98.33;100814.75;5019662;28;20030;-72
2023/07/05 03:18:25;;;;;;;8.32;3.15;;;11.40;99.90;;;10.29;97.84;100815.41;5019390;28;20072;-72
2023/07/05 03:20:51;;;;;;;17.85;3.60;;;11.40;99.90;;;10.39;97.54;100814.09;5027993;28;20490;-72
2023/07/05 03:23:17;;;;;;;12.30;3.65;;;11.50;99.90;;;10.41;96.95;100814.88;5026627;28;20068;-72
2023/07/05 03:25:55;;;;;;;8.50;3.53;;;11.60;99.90;;;10.56;96.40;100809.84;5020712;28;20037;-72
2023/07/05 03:28:21;;;;;;;17.15;3.63;;;11.60;99.90;;;10.60;95.88;100803.50;5011730;28;20030;-72
2023/07/05 03:30:57;;;;;;;16.10;3.40;;;11.70;99.90;;;10.67;95.32;100802.31;4984763;28;20029;-72
2023/07/05 03:33:23;;;;;;;;;;;11.70;99.90;;;10.77;95.56;100800.94;5018416;28;20076;-72
2023/07/05 03:35:54;;;;;;;9.60;3.78;;;11.90;99.90;;;10.92;94.44;100803.81;5026077;28;20000;-72
2023/07/05 03:38:20;;;;;;;9.77;3.35;;;12.00;99.90;;;11.03;93.53;100801.53;5012368;28;20044;-72
2023/07/05 03:40:46;;;;;;;9.85;2.83;;;12.10;99.90;;;11.14;93.02;100788.69;5001850;28;20044;-73
2023/07/05 03:43:12;;;;;;;16.92;3.75;;;12.20;99.90;;;11.25;92.53;100790.78;5032990;28;20060;-72
2023/07/05 03:45:37;;;;;;;12.25;3.42;;;12.60;99.90;;;11.52;91.86;100782.50;5029029;28;20056;-72
2023/07/05 03:48:03;;;;;;;6.72;2.90;;;13.10;99.90;;;12.01;89.60;100788.81;5009469;28;20036;-72
2023/07/05 03:50:29;;;;;;;11.63;3.45;;;13.10;99.90;;;12.09;88.10;100794.53;5028047;28;20132;-72
2023/07/05 03:52:55;;;;;;;15.73;3.85;;;13.00;99.90;;;11.94;87.71;100797.09;5018036;28;20025;-72
2023/07/05 03:55:21;;;;;;;11.73;3.97;;;12.90;99.90;;;11.88;87.48;100795.66;5015874;28;20397;-73
2023/07/05 03:57:46;;;;;;;14.27;3.58;;;12.90;99.90;;;11.92;87.83;100791.91;4996882;28;20461;-73
2023/07/05 04:00:13;;;;;;;14.23;3.70;;;13.10;99.90;;;12.14;87.12;100796.94;5027409;28;20033;-72
2023/07/05 04:02:39;;;;;;;6.93;3.45;;;13.40;99.90;;;12.51;86.22;100795.84;5026234;28;20029;-73
2023/07/05 04:05:05;;;;;;;10.07;3.78;;;13.70;99.90;;;12.90;84.60;100796.41;5017025;28;20527;-72
2023/07/05 04:07:31;;;;;;;18.15;3.78;;;14.00;99.90;;;13.39;83.10;100803.41;5029657;28;20051;-72
2023/07/05 04:09:57;;;;;;;11.13;3.22;;;14.70;99.90;;;14.14;80.25;100812.22;5027915;28;20040;-73
2023/07/05 04:12:22;;;;;;;12.52;3.90;;;15.40;99.90;;;15.06;76.94;100808.38;5033921;22;20039;-78
2023/07/05 04:14:48;;;;;;;12.57;4.13;;;16.00;99.90;;;15.52;73.90;100808.84;4988043;28;20049;-78
2023/07/05 04:17:14;;;;;;;;;;;15.90;99.90;;;15.10;73.14;100797.44;4979398;28;20137;-78
2023/07/05 04:19:40;;;;;;;15.32;4.10;;;15.50;99.90;;;14.43;74.70;100786.63;4966216;28;19961;-77
2023/07/05 04:22:05;;;;;;;;;;;15.90;99.90;;;15.25;73.74;100797.41;4972078;28;20113;-77
2023/07/05 04:24:31;;;;;;;13.98;3.78;;;16.60;99.90;;;16.31;71.01;100808.94;4972618;28;19921;-77
2023/07/05 04:26:57;;;;;;;14.27;4.05;;;17.30;99.90;;;17.16;68.48;100814.44;4970182;28;20586;-78
2023/07/05 04:29:23;;;;;;;14.60;3.70;;;17.90;99.90;;;17.85;66.20;100814.66;4970477;28;20058;-75
2023/07/05 04:31:48;;;;;;;13.30;4.07;;;18.40;99.90;;;18.35;64.47;100825.91;4986627;28;20387;-77
2023/07/05 04:34:16;;;;;;;11.70;2.80;;;18.70;99.90;;;18.59;63.34;100816.97;4980741;28;20133;-78
2023/07/05 04:36:42;;;;;;;18.17;3.40;;;18.90;99.90;;;18.64;63.03;100820.97;4975991;28;20034;-77
2023/07/05 04:39:08;;;;;;;17.38;3.05;;;19.10;99.90;;;18.77;62.81;100820.00;4965703;28;20041;-78
2023/07/05 04:41:34;;;;;;;26.08;3.83;;;19.10;99.90;;;19.03;62.84;100829.47;4986972;28;20537;-77
2023/07/05 04:44:00;;;;;;;13.40;3.97;;;19.40;99.90;;;19.12;62.22;100817.19;4988630;28;20706;-79
2023/07/05 04:46:25;;;;;;;14.45;3.90;;;19.30;99.90;;;18.66;62.99;100812.88;4986694;28;20038;-78
2023/07/05 04:48:51;;;;;;;12.68;3.78;;;19.00;99.90;;;18.07;64.32;100815.69;4988692;28;20145;-77
2023/07/05 04:51:17;;;;;;;;;;;18.90;99.90;;;17.21;66.11;100807.84;4970886;28;20045;-77
2023/07/05 04:53:43;;;;;;;19.27;3.70;;;18.20;99.90;;;17.11;67.60;100801.47;4991249;28;19982;-78
2023/07/05 04:56:14;;;;;;;13.82;3.45;;;17.90;99.90;;;16.85;68.88;100792.72;4988450;28;20046;-78
2023/07/05 04:58:41;;;;;;;9.70;3.58;;;17.60;99.90;;;16.58;69.70;100791.03;4973162;28;20399;-75
2023/07/05 05:01:08;;;;;;;12.98;3.60;;;17.40;99.90;;;16.24;70.96;100789.91;4970558;28;20052;-78
2023/07/05 05:03:33;;;;;;;14.13;3.38;;;17.10;99.90;;;16.08;72.01;100779.47;4987552;28;20088;-77
2023/07/05 05:06:00;;;;;;;14.23;4.03;;;17.00;99.90;;;15.70;72.95;100766.13;4982588;28;20038;-76
2023/07/05 05:08:26;;;;;;;15.90;4.13;;;16.60;99.90;;;15.47;75.06;100755.25;4978907;28;20027;-77
2023/07/05 05:11:01;;;;;;;13.07;3.63;;;16.50;99.90;;;15.55;75.54;100760.03;4986286;28;20041;-77
2023/07/05 05:13:29;;;;;;;8.88;3.47;;;16.50;99.90;;;15.78;74.64;100767.31;4985951;28;20054;-77
2023/07/05 05:15:56;;;;;;;10.82;3.85;;;16.50;99.90;;;15.63;74.87;100757.72;4979153;28;20124;-78
2023/07/05 05:18:23;;;;;;;12.52;3.45;;;16.50;99.90;;;15.82;74.26;100749.41;4983460;28;20465;-77
2023/07/05 05:20:50;;;;;;;11.07;3.30;;;16.60;99.90;;;15.67;73.93;100748.59;4987129;28;20117;-77
2023/07/05 05:23:16;;;;;;;16.10;3.60;;;16.50;99.90;;;15.56;73.93;100737.84;4985625;28;20026;-77
2023/07/05 05:25:44;;;;;;;9.05;3.42;;;16.50;99.90;;;15.69;74.03;100738.72;4986160;28;20030;-78
2023/07/05 05:28:11;;;;;;;15.40;3.95;;;16.50;99.90;;;15.70;73.92;100739.56;4989364;28;20022;-77
2023/07/05 05:30:38;;;;;;;13.50;3.88;;;16.50;99.90;;;15.84;73.05;100734.22;4985853;28;20070;-78
2023/07/05 05:33:04;;;;;;;12.80;3.47;;;16.50;99.90;;;15.64;74.07;100729.41;4986372;28;20058;-77
2023/07/05 05:35:32;;;;;;;10.57;3.33;;;16.60;99.90;;;15.79;74.13;100726.56;4986381;28;20517;-77
2023/07/05 05:37:58;;;;;;;12.00;3.40;;;16.60;99.90;;;15.81;74.31;100726.47;4986507;28;20491;-78
2023/07/05 05:40:24;;;;;;;8.63;2.95;;;16.50;99.90;;;15.49;75.02;100718.00;4970266;28;20030;-78
2023/07/05 05:42:49;;;;;;;13.45;3.30;;;16.40;99.90;;;15.54;74.83;100713.22;4971818;28;20035;-78
2023/07/05 05:45:15;;;;;;;;;;;16.50;99.90;;;15.51;75.02;100706.31;4974901;28;20033;-76
2023/07/05 05:47:43;;;;;;;14.00;3.42;;;16.40;99.90;;;15.58;75.27;100704.09;4991245;28;19919;-77
2023/07/05 05:50:09;;;;;;;17.75;3.70;;;16.50;99.90;;;15.57;75.19;100705.03;4974379;28;20038;-77
2023/07/05 05:52:35;;;;;;;11.77;3.50;;;16.50;99.90;;;15.70;74.41;100716.56;4988175;28;20062;-77
2023/07/05 05:55:02;;;;;;;12.07;3.13;;;16.60;99.90;;;15.68;73.83;100702.53;4990350;28;20065;-77
2023/07/05 05:57:28;;;;;;;9.30;3.53;;;16.60;99.90;;;15.66;73.54;100696.47;4989839;28;20038;-77
2023/07/05 05:59:54;;;;;;;8.73;3.20;;;16.70;99.90;;;15.84;73.02;100689.06;4989973;28;20398;-78
2023/07/05 06:02:20;;;;;;;14.40;3.30;;;16.60;99.90;;;15.70;73.25;100687.34;4990496;28;20061;-77
2023/07/05 06:04:46;;;;;;;9.50;3.13;;;16.70;99.90;;;15.71;73.45;100683.75;4989140;28;20499;-77
2023/07/05 06:07:11;;;;;;;;;;;16.60;99.90;;;15.66;73.83;100677.03;4991937;28;20029;-76
2023/07/05 06:09:48;;;;;;;20.15;3.80;;;16.60;99.90;;;15.60;73.81;100680.97;4991326;28;19913;-77
2023/07/05 06:12:14;;;;;;;;;;;16.60;99.90;;;15.60;73.87;100678.31;4980027;28;20058;-78
2023/07/05 06:14:40;;;;;;;16.60;3.35;;;16.60;99.90;;;15.74;73.96;100683.56;4981881;28;19936;-77
2023/07/05 06:17:07;;;;;;;13.55;3.40;;;16.70;99.90;;;15.82;73.92;100683.03;4973578;28;20054;-77
2023/07/05 06:19:33;;;;;;;13.77;3.85;;;16.80;99.90;;;16.10;74.12;100686.41;4993111;28;20034;-76
2023/07/05 06:21:59;;;;;;;11.90;3.42;;;17.00;99.90;;;16.24;72.88;100678.31;4989013;28;20106;-76
2023/07/05 06:24:25;;;;;;;10.77;3.47;;;17.20;99.90;;;16.89;72.01;100690.50;4980035;28;20102;-79
2023/07/05 06:26:52;;;;;;;11.85;3.30;;;17.60;99.90;;;17.34;70.26;100700.47;4986581;28;20459;-78
2023/07/05 06:29:18;;;;;;;13.40;3.30;;;17.90;99.90;;;17.62;68.95;100683.22;4986525;28;20085;-77
2023/07/05 06:31:44;;;;;;;8.02;3.00;;;18.10;99.90;;;17.40;68.67;100679.53;4987832;28;20046;-77
2023/07/05 06:34:10;;;;;;;13.80;3.30;;;18.10;99.90;;;17.45;68.57;100667.69;4980001;28;20131;-78
2023/07/05 06:36:35;;;;;;;9.07;2.58;;;18.20;99.90;;;17.38;67.72;100676.16;4987399;28;20434;-77
2023/07/05 06:39:03;;;;;;;10.75;3.28;;;18.20;99.90;;;17.32;67.43;100671.31;4977111;28;20033;-77
2023/07/05 06:41:29;;;;;;;8.57;2.63;;;18.10;99.90;;;17.19;66.93;100658.09;4974346;28;20038;-82
2023/07/05 06:43:54;;;;;;;11.02;2.83;;;18.20;99.90;;;17.25;66.99;100656.75;4990091;28;21329;-76
2023/07/05 06:46:20;;;;;;;9.68;2.75;;;18.10;99.90;;;17.27;66.79;100649.50;4988990;28;20173;-77
2023/07/05 06:48:46;;;;;;;10.02;2.83;;;18.20;99.90;;;17.31;66.67;100653.63;4991495;28;20100;-77
2023/07/05 06:51:12;;;;;;;14.02;3.17;;;18.20;99.90;;;17.23;66.80;100650.72;4989676;28;20558;-77
2023/07/05 06:53:38;;;;;;;;;;;18.20;99.90;;;17.24;66.40;100655.09;4990529;28;20029;-78
2023/07/05 06:56:04;;;;;;;11.07;2.83;;;18.20;99.90;;;17.22;66.49;100652.53;4987855;28;19949;-76
2023/07/05 06:58:30;;;;;;;9.70;3.08;;;18.10;99.90;;;17.14;66.75;100644.28;4987817;28;20065;-77
2023/07/05 07:00:56;;;;;;;13.98;2.97;;;18.00;99.90;;;17.15;67.31;100642.47;4989581;28;20050;-78
2023/07/05 07:03:21;;;;;;;;;;;18.10;99.90;;;17.12;67.45;100635.56;4989929;28;20065;-77
2023/07/05 07:05:52;;;;;;;11.40;2.90;;;18.10;99.90;;;17.19;67.29;100633.28;4988674;28;19925;-78
2023/07/05 07:08:19;;;;;;;12.48;2.85;;;18.10;99.90;;;17.17;66.59;100630.75;4989305;28;20125;-77
2023/07/05 07:10:45;;;;;;;11.13;3.15;;;18.10;99.90;;;17.17;65.52;100619.25;4986484;28;20038;-77
2023/07/05 07:13:11;;;;;;;11.63;3.40;;;18.10;99.90;;;17.13;65.61;100608.00;4989520;28;20102;-76
2023/07/05 07:15:36;;;;;;;;;;;18.10;99.90;;;17.16;64.84;100614.91;4974061;28;20670;-78
2023/07/05 07:18:03;;;;;;;8.30;2.60;;;18.10;99.90;;;17.19;64.63;100609.34;4989885;28;19928;-77
2023/07/05 07:20:29;;;;;;;4.90;2.00;;;18.10;99.90;;;17.08;65.01;100593.34;4989901;28;20066;-78
2023/07/05 07:22:54;;;;;;;8.57;2.97;;;18.20;99.90;;;17.28;64.77;100598.00;4977316;28;20121;-77
2023/07/05 07:25:20;;;;;;;11.85;2.60;;;18.20;99.90;;;17.18;65.18;100586.38;4973507;28;20113;-78
2023/07/05 07:27:46;;;;;;;9.98;2.60;;;18.10;99.90;;;17.13;65.35;100586.72;4987876;28;20037;-77
2023/07/05 07:30:13;;;;;;;10.27;2.90;;;18.10;99.90;;;17.12;64.93;100582.34;4988716;28;20034;-76
2023/07/05 07:32:39;;;;;;;9.38;2.65;;;18.10;99.90;;;17.21;65.15;100587.00;4986083;28;20053;-78
2023/07/05 07:35:05;;;;;;;12.50;3.00;;;18.20;99.90;;;17.32;65.02;100580.84;4979620;28;20042;-76
2023/07/05 07:37:32;;;;;;;11.32;3.25;;;18.20;99.90;;;17.21;65.16;100576.34;4970624;28;20049;-76
2023/07/05 07:39:58;;;;;;;8.85;3.00;;;18.20;99.90;;;17.37;65.34;100583.13;4977928;28;20038;-77
2023/07/05 07:42:24;;;;;;;11.93;2.70;;;18.30;99.90;;;17.40;65.24;100581.06;4990826;28;20613;-77
2023/07/05 07:44:53;;;;;;;13.85;3.00;;;18.30;99.90;;;17.40;65.15;100578.41;4989008;28;20113;-76
2023/07/05 07:47:19;;;;;;;8.05;2.67;;;18.40;99.90;;;17.50;65.59;100575.06;4987060;28;20487;-77
2023/07/05 07:49:45;;;;;;;12.35;2.85;;;18.30;99.90;;;17.40;65.88;100573.09;4973202;28;20049;-78
2023/07/05 07:52:13;;;;;;;;;;;18.30;99.90;;;17.40;65.85;100573.09;4988149;28;20031;-78
2023/07/05 07:54:39;;;;;;;10.15;2.78;;;18.30;99.90;;;17.33;66.42;100565.72;4986767;28;20676;-78
2023/07/05 07:57:06;;;;;;;11.93;2.75;;;18.30;99.90;;;17.39;66.72;100560.75;4987216;28;20124;-78
2023/07/05 07:59:34;;;;;;;9.82;2.95;;;18.30;99.90;;;17.33;66.88;100560.38;4986876;28;20115;-77
2023/07/05 08:01:59;;;;;;;12.48;2.75;;;18.30;99.90;;;17.38;67.52;100550.22;4987687;28;20092;-77
2023/07/05 08:04:28;;;;;;;12.32;2.92;;;18.30;99.90;;;17.36;68.42;100538.84;4980581;28;20145;-77
2023/07/05 08:06:54;;;;;;;7.40;2.50;;;18.20;99.90;;;17.22;68.52;100538.13;4987516;28;20559;-77
2023/07/05 08:09:28;;;;;;;10.60;3.35;;;18.20;99.90;;;17.19;69.20;100537.50;4988264;28;20117;-76
2023/07/05 08:11:57;;;;;;;8.45;2.90;;;18.10;99.90;;;17.07;70.08;100518.03;4987314;28;20034;-78
2023/07/05 08:14:23;;;;;;;7.05;2.75;;;18.10;99.90;;;17.22;70.50;100502.69;4988918;28;20046;-78
2023/07/05 08:16:49;;;;;;;9.30;2.88;;;18.10;99.90;;;17.35;70.37;100506.06;4989637;28;20040;-76
2023/07/05 08:19:15;;;;;;;8.15;2.95;;;18.20;99.90;;;17.54;69.53;100500.16;4977428;28;20046;-77
2023/07/05 08:21:45;;;;;;;9.48;3.00;;;18.30;99.90;;;17.63;69.63;100499.41;4973384;28;20034;-77
2023/07/05 08:24:14;;;;;;;16.33;3.20;;;18.50;99.90;;;17.77;69.25;100489.47;4989801;28;20111;-78
2023/07/05 08:26:40;;;;;;;6.18;2.58;;;18.60;99.90;;;17.93;69.20;100494.44;4989933;28;20099;-77
2023/07/05 08:29:08;;;;;;;9.50;2.70;;;18.70;99.90;;;17.90;68.97;100484.03;4988750;28;20037;-77
2023/07/05 08:31:35;;;;;;;9.75;2.72;;;18.80;99.90;;;18.08;67.93;100487.00;4969291;28;20065;-77
2023/07/05 08:34:01;;;;;;;9.88;2.85;;;18.80;99.90;;;17.97;68.62;100479.88;4985246;28;20554;-77
2023/07/05 08:36:38;;;;;;;15.82;3.20;;;18.90;99.90;;;18.29;67.35;100497.72;4967886;28;20097;-77
2023/07/05 08:39:06;;;;;;;10.35;2.97;;;19.10;99.90;;;18.41;66.72;100494.03;4984820;28;20103;-75
2023/07/05 08:41:54;;;;;;;12.55;2.90;;;19.20;99.90;;;18.50;65.95;100501.25;4972253;28;20043;-77
2023/07/05 08:44:37;;;;;;;15.07;3.05;;;19.30;99.90;;;18.51;65.75;100488.78;4988585;28;20030;-77
2023/07/05 08:47:11;;;;;;;6.88;2.72;;;19.40;99.90;;;18.55;65.87;100479.53;4989331;28;20040;-78
2023/07/05 08:50:03;;;;;;;12.77;3.13;;;19.40;99.90;;;18.53;65.92;100476.16;4989568;28;20050;-78
2023/07/05 08:52:43;;;;;;;9.00;3.50;;;19.30;99.90;;;18.43;66.04;100473.44;4971093;28;20108;-77
2023/07/05 08:55:22;;;;;;;10.30;3.70;;;19.40;99.90;;;18.54;66.09;100494.72;4970439;28;20052;-78
2023/07/05 08:57:55;;;;;;;9.70;3.75;;;19.40;99.90;;;18.49;66.27;100491.59;4971366;28;20045;-78
2023/07/05 09:00:48;;;;;;;26.40;9.38;;;19.40;99.90;;;18.68;66.93;100495.34;4989035;28;20037;-76
2023/07/05 09:03:15;;;;;;;16.35;4.22;;;19.50;99.90;;;18.82;67.02;100498.59;4973370;28;20042;-77
2023/07/05 09:05:59;;;;;;;15.13;3.17;;;19.60;99.90;;;18.83;66.73;100494.97;4984595;28;20041;-78
2023/07/05 09:09:14;;;;;;;12.10;3.38;;;19.60;99.90;;;18.98;67.78;100506.13;4987266;28;20042;-78
2023/07/05 09:12:41;;;;;;;9.25;2.92;;;19.70;99.90;;;18.88;67.59;100507.03;4989959;28;20402;-77
2023/07/05 09:15:41;;;;;;;13.98;3.55;;;19.80;99.90;;;19.00;67.30;100509.50;4989862;28;20051;-77
2023/07/05 09:18:42;;;;;;;11.38;3.45;;;19.80;99.90;;;18.98;68.80;100498.13;4974949;28;20119;-77
2023/07/05 09:21:42;;;;;;;11.00;3.50;;;19.80;99.90;;;19.10;68.60;100501.56;5007062;28;20112;-78
2023/07/05 09:24:21;;;;;;;9.05;3.53;;;19.90;99.90;;;19.33;68.00;100509.41;4995292;28;20505;-77
2023/07/05 09:27:15;;;;;;;9.43;3.85;;;20.10;99.90;;;19.40;67.44;100513.25;4976091;28;20050;-77
2023/07/05 09:29:49;;;;;;;15.25;4.03;;;20.20;99.90;;;19.49;66.63;100523.13;5004543;28;20541;-78
2023/07/05 09:32:26;;;;;;;11.98;5.43;;;20.30;99.90;;;19.55;66.64;100522.59;4991327;28;20045;-77
2023/07/05 09:34:59;;;;;;;6.40;3.05;;;20.30;99.90;;;19.49;66.83;100511.59;4986596;28;20065;-77
2023/07/05 09:37:36;;;;;;;0.00;0.00;;;20.30;99.90;;;19.72;66.97;100515.78;4992599;28;20180;-79
2023/07/05 09:40:35;;;;;;;1.75;0.50;;;20.40;99.90;;;19.70;66.61;100508.88;4993198;28;20033;-78
2023/07/05 09:43:27;;;;;;;2.13;0.85;;;20.50;99.90;;;19.79;66.84;100502.72;4991037;28;20433;-78
2023/07/05 09:45:54;;;;;;;0.00;0.00;;;20.60;99.90;;;19.79;66.71;100498.22;5011433;28;20528;-77
2023/07/05 09:48:25;;;;;;;0.00;0.00;;;20.60;99.90;;;19.88;66.35;100500.06;4994552;28;20034;-77
2023/07/05 09:50:52;;;;;;;0.00;0.00;;;20.70;99.90;;;19.94;65.96;100490.66;5010592;28;20116;-77
2023/07/05 09:53:53;;;;;;;0.00;0.00;;;20.70;99.90;;;20.00;65.88;100500.81;4990930;28;20038;-79
2023/07/05 09:56:32;;;;;;;0.00;0.00;;;20.80;99.90;;;20.05;66.24;100492.38;4947877;28;20155;-77
2023/07/05 09:59:19;;;;;;;0.00;0.00;;;20.90;99.90;;;20.29;66.34;100490.13;4934904;28;20046;-78
2023/07/05 10:01:54;;;;;;;1.58;0.57;;;21.10;99.90;;;20.66;65.69;100485.94;4935806;28;20031;-77
2023/07/05 10:04:27;;;;;;;1.35;0.75;;;21.30;99.90;;;21.06;64.43;100479.53;4951684;28;20567;-77
2023/07/05 10:06:54;;;;;;;4.45;2.13;;;21.60;99.90;;;21.30;63.65;100481.69;4934026;28;20764;-76
2023/07/05 10:09:28;;;;;;;15.20;5.20;;;21.90;99.90;;;21.64;62.63;100481.13;4935246;28;20122;-78
2023/07/05 10:11:59;;;;;;;9.77;4.72;;;22.20;99.90;;;21.70;61.35;100480.53;4920446;28;20459;-78
2023/07/05 10:14:33;;;;;;;13.15;4.05;;;22.30;99.90;;;22.02;61.40;100473.88;4936066;28;20070;-78
2023/07/05 10:17:13;;;;;;;7.07;2.90;;;22.60;99.90;;;22.46;61.08;100482.88;4936573;28;20050;-78
2023/07/05 10:19:52;;;;;;;14.40;5.50;;;22.80;99.90;;;22.45;60.87;100481.16;4932980;28;20126;-77
2023/07/05 10:22:37;;;;;;;15.40;7.65;;;23.00;99.90;;;22.43;59.60;100479.66;4950255;28;20035;-78
2023/07/05 10:25:40;;;;;;;20.10;6.55;;;23.10;99.90;;;22.48;57.75;100474.66;4935606;28;20039;-77
2023/07/05 10:28:07;;;;;;;18.20;7.28;;;23.20;99.90;;;22.62;56.45;100468.72;4862944;29;20052;-77
2023/07/05 10:31:00;;;;;;;15.20;7.15;;;23.20;99.90;;;22.78;57.34;100465.31;4876951;29;20040;-77